Main page
METAR-TAF:

METAR-TAF

Airports :

Cambridge Airport

Cambridge, England

latitude: 52-12N, longitude: 000-11E, elevation: 15 m

Current weather observation

The report was made 44 minutes ago, at 08:20 UTC
Wind 16 kt from the West
Temperature 12°C
Humidity 62%
Pressure 1005 hPa
Visibility 10 km or more
Few clouds at a height of 3000 ft

METAR: EGSC 210820Z 26016KT 9999 FEW030 12/05 Q1005

Time: 10:04 (09:04 UTC)

Forecast

The report was made 1 hour and 6 minutes ago, at 07:58 UTC
Forecast valid from 21 at 09 UTC to 21 at 18 UTC
Wind 17 kt from the West with gusts up to 27 kt
Visibility 10 km or more
Scattered clouds at a height of 2500 ft
Probability 30% :
Temporary
from 21 at 11 UTC to 21 at 18 UTC
Wind 27 kt from the West with gusts up to 37 kt
Visibility: 7000 m
rain showers

TAF: EGSC 210758Z 2109/2118 27017G27KT 9999 SCT025 PROB30 TEMPO 2111/2118 28027G37KT 7000 SHRA

Weather observations and forecasts of more than 4000 airports (METAR and TAF reports).

The available stations are represented by yellow and red dots on the map.

Hover mouse over dot to see the name of the station.

Then click to see weather observations and forecasts.

To change the map : click on the green buttons with a black cross to zoom in, on the green button with a dash to zoom out, or on the green arrows for adjacent maps.


METAR-TAF: